sensor_id;sensor_type;location;lat;lon;timestamp;P1;durP1;ratioP1;P2;durP2;ratioP2
38208;SDS011;24016;52.102;11.584;2022-09-30T00:01:15;23.23;;;18.58;;
38208;SDS011;24016;52.102;11.584;2022-09-30T00:03:40;23.10;;;19.42;;
38208;SDS011;24016;52.102;11.584;2022-09-30T00:06:07;20.92;;;17.60;;
38208;SDS011;24016;52.102;11.584;2022-09-30T00:08:35;22.85;;;18.00;;
38208;SDS011;24016;52.102;11.584;2022-09-30T00:13:54;22.25;;;17.83;;
38208;SDS011;24016;52.102;11.584;2022-09-30T00:16:22;24.15;;;18.60;;
38208;SDS011;24016;52.102;11.584;2022-09-30T00:18:53;23.13;;;18.13;;
38208;SDS011;24016;52.102;11.584;2022-09-30T00:21:20;21.45;;;18.05;;
38208;SDS011;24016;52.102;11.584;2022-09-30T00:23:45;21.85;;;17.52;;
38208;SDS011;24016;52.102;11.584;2022-09-30T00:26:20;20.92;;;17.65;;
38208;SDS011;24016;52.102;11.584;2022-09-30T00:28:51;22.92;;;18.38;;
38208;SDS011;24016;52.102;11.584;2022-09-30T00:33:44;23.40;;;19.10;;
38208;SDS011;24016;52.102;11.584;2022-09-30T00:36:29;25.58;;;18.73;;
38208;SDS011;24016;52.102;11.584;2022-09-30T00:38:54;25.23;;;19.67;;
38208;SDS011;24016;52.102;11.584;2022-09-30T00:41:20;25.65;;;20.95;;
38208;SDS011;24016;52.102;11.584;2022-09-30T00:43:47;23.65;;;19.70;;
38208;SDS011;24016;52.102;11.584;2022-09-30T00:46:20;23.30;;;19.42;;
38208;SDS011;24016;52.102;11.584;2022-09-30T00:48:55;21.42;;;18.27;;
38208;SDS011;24016;52.102;11.584;2022-09-30T00:51:32;22.83;;;18.20;;
38208;SDS011;24016;52.102;11.584;2022-09-30T00:54:02;23.10;;;18.27;;
38208;SDS011;24016;52.102;11.584;2022-09-30T00:56:41;25.73;;;18.52;;
38208;SDS011;24016;52.102;11.584;2022-09-30T00:59:24;21.75;;;18.63;;
38208;SDS011;24016;52.102;11.584;2022-09-30T01:01:56;20.35;;;17.73;;
38208;SDS011;24016;52.102;11.584;2022-09-30T01:04:22;21.58;;;16.60;;
38208;SDS011;24016;52.102;11.584;2022-09-30T01:06:50;25.23;;;18.33;;
38208;SDS011;24016;52.102;11.584;2022-09-30T01:09:16;22.05;;;18.98;;
38208;SDS011;24016;52.102;11.584;2022-09-30T01:11:42;24.67;;;18.95;;
38208;SDS011;24016;52.102;11.584;2022-09-30T01:14:12;24.42;;;19.27;;
38208;SDS011;24016;52.102;11.584;2022-09-30T01:27:42;24.40;;;19.13;;
38208;SDS011;24016;52.102;11.584;2022-09-30T01:30:15;24.75;;;20.45;;
38208;SDS011;24016;52.102;11.584;2022-09-30T01:36:09;26.33;;;20.10;;
38208;SDS011;24016;52.102;11.584;2022-09-30T01:41:36;24.20;;;18.67;;
38208;SDS011;24016;52.102;11.584;2022-09-30T01:44:18;23.38;;;17.38;;
38208;SDS011;24016;52.102;11.584;2022-09-30T01:47:10;20.80;;;16.98;;
38208;SDS011;24016;52.102;11.584;2022-09-30T01:50:35;22.02;;;17.77;;
38208;SDS011;24016;52.102;11.584;2022-09-30T01:56:01;21.80;;;16.92;;
38208;SDS011;24016;52.102;11.584;2022-09-30T01:58:36;22.10;;;17.33;;
38208;SDS011;24016;52.102;11.584;2022-09-30T02:01:08;26.40;;;18.50;;
38208;SDS011;24016;52.102;11.584;2022-09-30T02:03:43;21.27;;;17.50;;
38208;SDS011;24016;52.102;11.584;2022-09-30T02:06:15;22.88;;;17.73;;
38208;SDS011;24016;52.102;11.584;2022-09-30T02:09:04;23.13;;;18.05;;
38208;SDS011;24016;52.102;11.584;2022-09-30T02:11:47;20.02;;;16.45;;
38208;SDS011;24016;52.102;11.584;2022-09-30T02:14:33;23.45;;;19.63;;
38208;SDS011;24016;52.102;11.584;2022-09-30T02:17:11;25.38;;;18.58;;
38208;SDS011;24016;52.102;11.584;2022-09-30T02:22:27;20.55;;;16.40;;
38208;SDS011;24016;52.102;11.584;2022-09-30T02:25:05;22.92;;;18.05;;
38208;SDS011;24016;52.102;11.584;2022-09-30T02:27:33;23.10;;;18.02;;
38208;SDS011;24016;52.102;11.584;2022-09-30T02:30:05;23.73;;;18.98;;
38208;SDS011;24016;52.102;11.584;2022-09-30T02:32:34;22.77;;;16.83;;
38208;SDS011;24016;52.102;11.584;2022-09-30T02:35:09;25.50;;;18.30;;
38208;SDS011;24016;52.102;11.584;2022-09-30T02:37:47;22.67;;;18.25;;
38208;SDS011;24016;52.102;11.584;2022-09-30T02:40:36;23.77;;;18.13;;
38208;SDS011;24016;52.102;11.584;2022-09-30T02:43:07;22.90;;;17.80;;
38208;SDS011;24016;52.102;11.584;2022-09-30T02:45:37;22.35;;;17.45;;
38208;SDS011;24016;52.102;11.584;2022-09-30T02:48:27;21.48;;;17.40;;
38208;SDS011;24016;52.102;11.584;2022-09-30T02:54:19;21.88;;;17.17;;
38208;SDS011;24016;52.102;11.584;2022-09-30T02:57:17;21.55;;;17.60;;
38208;SDS011;24016;52.102;11.584;2022-09-30T02:59:54;23.33;;;17.55;;
38208;SDS011;24016;52.102;11.584;2022-09-30T03:02:20;22.40;;;18.30;;
38208;SDS011;24016;52.102;11.584;2022-09-30T03:04:47;22.52;;;17.38;;
38208;SDS011;24016;52.102;11.584;2022-09-30T03:07:14;23.77;;;18.73;;
38208;SDS011;24016;52.102;11.584;2022-09-30T03:09:39;22.95;;;18.50;;
38208;SDS011;24016;52.102;11.584;2022-09-30T03:12:16;22.33;;;17.92;;
38208;SDS011;24016;52.102;11.584;2022-09-30T03:15:07;22.63;;;18.48;;
38208;SDS011;24016;52.102;11.584;2022-09-30T03:20:52;22.73;;;18.52;;
38208;SDS011;24016;52.102;11.584;2022-09-30T03:23:50;29.15;;;18.63;;
38208;SDS011;24016;52.102;11.584;2022-09-30T03:26:36;24.60;;;18.08;;
38208;SDS011;24016;52.102;11.584;2022-09-30T03:31:49;25.38;;;18.83;;
38208;SDS011;24016;52.102;11.584;2022-09-30T03:37:13;22.08;;;18.40;;
38208;SDS011;24016;52.102;11.584;2022-09-30T03:42:23;29.00;;;21.52;;
38208;SDS011;24016;52.102;11.584;2022-09-30T03:50:08;26.83;;;20.55;;
38208;SDS011;24016;52.102;11.584;2022-09-30T03:52:36;30.80;;;22.00;;
38208;SDS011;24016;52.102;11.584;2022-09-30T03:55:03;28.85;;;20.63;;
38208;SDS011;24016;52.102;11.584;2022-09-30T03:57:30;25.60;;;20.98;;
38208;SDS011;24016;52.102;11.584;2022-09-30T03:59:56;30.48;;;22.00;;
38208;SDS011;24016;52.102;11.584;2022-09-30T04:02:22;26.35;;;20.02;;
38208;SDS011;24016;52.102;11.584;2022-09-30T04:04:48;24.55;;;19.90;;
38208;SDS011;24016;52.102;11.584;2022-09-30T04:07:14;24.73;;;19.27;;
38208;SDS011;24016;52.102;11.584;2022-09-30T04:09:39;27.40;;;19.92;;
38208;SDS011;24016;52.102;11.584;2022-09-30T04:12:05;25.50;;;20.05;;
38208;SDS011;24016;52.102;11.584;2022-09-30T04:14:32;24.80;;;20.33;;
38208;SDS011;24016;52.102;11.584;2022-09-30T04:16:58;23.77;;;19.20;;
38208;SDS011;24016;52.102;11.584;2022-09-30T04:19:24;25.40;;;19.77;;
38208;SDS011;24016;52.102;11.584;2022-09-30T04:21:50;25.23;;;19.08;;
38208;SDS011;24016;52.102;11.584;2022-09-30T04:24:17;25.90;;;18.98;;
38208;SDS011;24016;52.102;11.584;2022-09-30T04:26:43;23.25;;;18.85;;
38208;SDS011;24016;52.102;11.584;2022-09-30T04:29:08;21.98;;;17.73;;
38208;SDS011;24016;52.102;11.584;2022-09-30T04:31:34;24.83;;;18.65;;
38208;SDS011;24016;52.102;11.584;2022-09-30T04:33:59;25.30;;;18.80;;
38208;SDS011;24016;52.102;11.584;2022-09-30T04:36:25;24.65;;;19.48;;
38208;SDS011;24016;52.102;11.584;2022-09-30T04:38:51;21.50;;;17.70;;
38208;SDS011;24016;52.102;11.584;2022-09-30T04:41:17;26.40;;;19.33;;
38208;SDS011;24016;52.102;11.584;2022-09-30T04:43:43;27.40;;;20.38;;
38208;SDS011;24016;52.102;11.584;2022-09-30T04:46:10;26.70;;;20.63;;
38208;SDS011;24016;52.102;11.584;2022-09-30T04:48:37;26.65;;;19.85;;
38208;SDS011;24016;52.102;11.584;2022-09-30T04:51:02;27.15;;;19.00;;
38208;SDS011;24016;52.102;11.584;2022-09-30T04:53:28;29.42;;;20.63;;
38208;SDS011;24016;52.102;11.584;2022-09-30T04:55:58;27.98;;;20.42;;
38208;SDS011;24016;52.102;11.584;2022-09-30T04:58:25;31.63;;;21.88;;
38208;SDS011;24016;52.102;11.584;2022-09-30T05:00:58;30.92;;;21.77;;
38208;SDS011;24016;52.102;11.584;2022-09-30T05:03:28;27.45;;;21.20;;
38208;SDS011;24016;52.102;11.584;2022-09-30T05:05:54;30.52;;;21.10;;
38208;SDS011;24016;52.102;11.584;2022-09-30T05:08:19;25.70;;;19.35;;
38208;SDS011;24016;52.102;11.584;2022-09-30T05:10:56;28.88;;;21.17;;
38208;SDS011;24016;52.102;11.584;2022-09-30T05:13:24;27.65;;;20.58;;
38208;SDS011;24016;52.102;11.584;2022-09-30T05:15:53;29.98;;;20.40;;
38208;SDS011;24016;52.102;11.584;2022-09-30T05:18:19;26.10;;;19.95;;
38208;SDS011;24016;52.102;11.584;2022-09-30T05:20:47;24.58;;;18.52;;
38208;SDS011;24016;52.102;11.584;2022-09-30T05:23:14;29.55;;;19.90;;
38208;SDS011;24016;52.102;11.584;2022-09-30T05:25:40;24.20;;;18.95;;
38208;SDS011;24016;52.102;11.584;2022-09-30T05:28:06;25.58;;;19.17;;
38208;SDS011;24016;52.102;11.584;2022-09-30T05:30:32;26.30;;;19.98;;
38208;SDS011;24016;52.102;11.584;2022-09-30T05:32:58;26.67;;;19.42;;
38208;SDS011;24016;52.102;11.584;2022-09-30T05:35:24;26.23;;;19.48;;
38208;SDS011;24016;52.102;11.584;2022-09-30T05:37:49;27.35;;;20.33;;
38208;SDS011;24016;52.102;11.584;2022-09-30T05:40:15;31.27;;;21.42;;
38208;SDS011;24016;52.102;11.584;2022-09-30T05:42:41;29.73;;;20.67;;
38208;SDS011;24016;52.102;11.584;2022-09-30T05:45:09;27.60;;;21.58;;
38208;SDS011;24016;52.102;11.584;2022-09-30T05:47:35;25.98;;;21.13;;
38208;SDS011;24016;52.102;11.584;2022-09-30T05:50:01;27.20;;;20.48;;
38208;SDS011;24016;52.102;11.584;2022-09-30T05:52:26;32.60;;;24.00;;
38208;SDS011;24016;52.102;11.584;2022-09-30T05:54:52;35.30;;;23.20;;
38208;SDS011;24016;52.102;11.584;2022-09-30T05:57:19;28.70;;;20.83;;
38208;SDS011;24016;52.102;11.584;2022-09-30T05:59:45;27.20;;;21.67;;
38208;SDS011;24016;52.102;11.584;2022-09-30T06:02:11;27.27;;;21.35;;
38208;SDS011;24016;52.102;11.584;2022-09-30T06:04:38;27.65;;;21.67;;
38208;SDS011;24016;52.102;11.584;2022-09-30T06:07:03;28.90;;;20.90;;
38208;SDS011;24016;52.102;11.584;2022-09-30T06:09:30;27.17;;;20.73;;
38208;SDS011;24016;52.102;11.584;2022-09-30T06:11:56;28.65;;;20.10;;
38208;SDS011;24016;52.102;11.584;2022-09-30T06:14:24;26.38;;;20.15;;
38208;SDS011;24016;52.102;11.584;2022-09-30T06:16:52;27.73;;;20.73;;
38208;SDS011;24016;52.102;11.584;2022-09-30T06:19:18;27.52;;;19.73;;
38208;SDS011;24016;52.102;11.584;2022-09-30T06:21:45;27.02;;;20.00;;
38208;SDS011;24016;52.102;11.584;2022-09-30T06:24:10;28.67;;;20.27;;
38208;SDS011;24016;52.102;11.584;2022-09-30T06:26:38;28.60;;;20.63;;
38208;SDS011;24016;52.102;11.584;2022-09-30T06:29:04;29.67;;;19.52;;
38208;SDS011;24016;52.102;11.584;2022-09-30T06:31:29;23.63;;;20.35;;
38208;SDS011;24016;52.102;11.584;2022-09-30T06:33:55;29.65;;;20.00;;
38208;SDS011;24016;52.102;11.584;2022-09-30T06:36:21;24.52;;;19.88;;
38208;SDS011;24016;52.102;11.584;2022-09-30T06:38:47;24.67;;;18.02;;
38208;SDS011;24016;52.102;11.584;2022-09-30T06:41:18;23.02;;;18.38;;
38208;SDS011;24016;52.102;11.584;2022-09-30T06:43:44;23.58;;;17.58;;
38208;SDS011;24016;52.102;11.584;2022-09-30T06:46:10;19.35;;;15.85;;
38208;SDS011;24016;52.102;11.584;2022-09-30T06:48:37;26.77;;;16.15;;
38208;SDS011;24016;52.102;11.584;2022-09-30T06:51:03;18.23;;;15.07;;
38208;SDS011;24016;52.102;11.584;2022-09-30T06:53:28;19.02;;;15.13;;
38208;SDS011;24016;52.102;11.584;2022-09-30T06:55:57;15.65;;;12.80;;
38208;SDS011;24016;52.102;11.584;2022-09-30T06:58:23;16.35;;;14.65;;
38208;SDS011;24016;52.102;11.584;2022-09-30T07:01:02;16.50;;;14.82;;
38208;SDS011;24016;52.102;11.584;2022-09-30T07:03:30;15.25;;;13.60;;
38208;SDS011;24016;52.102;11.584;2022-09-30T07:05:58;17.13;;;13.57;;
38208;SDS011;24016;52.102;11.584;2022-09-30T07:08:25;17.58;;;13.70;;
38208;SDS011;24016;52.102;11.584;2022-09-30T07:10:58;13.60;;;12.20;;
38208;SDS011;24016;52.102;11.584;2022-09-30T07:13:25;12.98;;;11.45;;
38208;SDS011;24016;52.102;11.584;2022-09-30T07:15:52;12.73;;;11.43;;
38208;SDS011;24016;52.102;11.584;2022-09-30T07:18:20;13.80;;;12.32;;
38208;SDS011;24016;52.102;11.584;2022-09-30T07:20:46;12.15;;;10.90;;
38208;SDS011;24016;52.102;11.584;2022-09-30T07:23:15;11.43;;;10.25;;
38208;SDS011;24016;52.102;11.584;2022-09-30T07:26:15;11.75;;;10.55;;
38208;SDS011;24016;52.102;11.584;2022-09-30T07:28:34;12.23;;;9.98;;
38208;SDS011;24016;52.102;11.584;2022-09-30T07:31:01;11.85;;;10.35;;
38208;SDS011;24016;52.102;11.584;2022-09-30T07:33:32;11.98;;;10.00;;
38208;SDS011;24016;52.102;11.584;2022-09-30T07:35:59;11.88;;;9.82;;
38208;SDS011;24016;52.102;11.584;2022-09-30T07:38:28;9.52;;;8.43;;
38208;SDS011;24016;52.102;11.584;2022-09-30T07:40:56;17.42;;;9.65;;
38208;SDS011;24016;52.102;11.584;2022-09-30T07:43:28;10.25;;;8.48;;
38208;SDS011;24016;52.102;11.584;2022-09-30T07:46:02;10.70;;;7.97;;
38208;SDS011;24016;52.102;11.584;2022-09-30T07:48:33;14.00;;;8.30;;
38208;SDS011;24016;52.102;11.584;2022-09-30T07:51:14;7.90;;;7.10;;
38208;SDS011;24016;52.102;11.584;2022-09-30T07:53:43;9.30;;;7.10;;
38208;SDS011;24016;52.102;11.584;2022-09-30T07:56:10;7.63;;;6.82;;
38208;SDS011;24016;52.102;11.584;2022-09-30T07:58:36;7.22;;;6.25;;
38208;SDS011;24016;52.102;11.584;2022-09-30T08:01:03;10.13;;;5.88;;
38208;SDS011;24016;52.102;11.584;2022-09-30T08:03:30;7.18;;;5.97;;
38208;SDS011;24016;52.102;11.584;2022-09-30T08:06:16;8.10;;;5.90;;
38208;SDS011;24016;52.102;11.584;2022-09-30T08:08:43;7.25;;;5.30;;
38208;SDS011;24016;52.102;11.584;2022-09-30T08:11:10;9.57;;;5.70;;
38208;SDS011;24016;52.102;11.584;2022-09-30T08:13:37;5.38;;;4.22;;
38208;SDS011;24016;52.102;11.584;2022-09-30T08:16:03;6.70;;;4.45;;
38208;SDS011;24016;52.102;11.584;2022-09-30T08:18:28;5.97;;;4.68;;
38208;SDS011;24016;52.102;11.584;2022-09-30T08:20:54;7.82;;;4.97;;
38208;SDS011;24016;52.102;11.584;2022-09-30T08:23:20;5.93;;;5.03;;
38208;SDS011;24016;52.102;11.584;2022-09-30T08:25:46;4.68;;;4.25;;
38208;SDS011;24016;52.102;11.584;2022-09-30T08:28:12;6.47;;;4.85;;
38208;SDS011;24016;52.102;11.584;2022-09-30T08:30:38;5.75;;;5.13;;
38208;SDS011;24016;52.102;11.584;2022-09-30T08:33:04;6.07;;;5.00;;
38208;SDS011;24016;52.102;11.584;2022-09-30T08:35:29;5.38;;;4.43;;
38208;SDS011;24016;52.102;11.584;2022-09-30T08:37:55;6.53;;;4.70;;
38208;SDS011;24016;52.102;11.584;2022-09-30T08:40:22;5.13;;;4.50;;
38208;SDS011;24016;52.102;11.584;2022-09-30T08:45:48;7.18;;;5.47;;
38208;SDS011;24016;52.102;11.584;2022-09-30T08:48:44;7.57;;;5.32;;
38208;SDS011;24016;52.102;11.584;2022-09-30T08:51:30;6.60;;;5.47;;
38208;SDS011;24016;52.102;11.584;2022-09-30T08:54:04;7.93;;;5.50;;
38208;SDS011;24016;52.102;11.584;2022-09-30T08:59:10;6.63;;;5.28;;
38208;SDS011;24016;52.102;11.584;2022-09-30T09:02:07;8.45;;;5.88;;
38208;SDS011;24016;52.102;11.584;2022-09-30T09:04:35;7.32;;;5.82;;
38208;SDS011;24016;52.102;11.584;2022-09-30T09:07:04;6.38;;;5.32;;
38208;SDS011;24016;52.102;11.584;2022-09-30T09:18:07;5.50;;;3.95;;
38208;SDS011;24016;52.102;11.584;2022-09-30T09:20:47;6.03;;;4.03;;
38208;SDS011;24016;52.102;11.584;2022-09-30T09:23:21;7.47;;;4.65;;
38208;SDS011;24016;52.102;11.584;2022-09-30T09:25:48;5.70;;;4.68;;
38208;SDS011;24016;52.102;11.584;2022-09-30T09:28:24;5.43;;;4.75;;
38208;SDS011;24016;52.102;11.584;2022-09-30T09:30:53;6.45;;;4.47;;
38208;SDS011;24016;52.102;11.584;2022-09-30T09:33:34;7.30;;;4.85;;
38208;SDS011;24016;52.102;11.584;2022-09-30T09:39:11;4.97;;;4.43;;
38208;SDS011;24016;52.102;11.584;2022-09-30T09:41:48;7.65;;;4.60;;
38208;SDS011;24016;52.102;11.584;2022-09-30T09:47:18;7.60;;;5.00;;
38208;SDS011;24016;52.102;11.584;2022-09-30T09:52:37;4.78;;;3.80;;
38208;SDS011;24016;52.102;11.584;2022-09-30T09:55:23;4.07;;;3.65;;
38208;SDS011;24016;52.102;11.584;2022-09-30T10:00:50;4.45;;;4.03;;
38208;SDS011;24016;52.102;11.584;2022-09-30T10:03:20;5.03;;;3.83;;
38208;SDS011;24016;52.102;11.584;2022-09-30T10:05:58;5.07;;;3.88;;
38208;SDS011;24016;52.102;11.584;2022-09-30T10:08:25;8.35;;;4.50;;
38208;SDS011;24016;52.102;11.584;2022-09-30T10:16:02;7.53;;;4.00;;
38208;SDS011;24016;52.102;11.584;2022-09-30T10:18:31;6.10;;;4.30;;
38208;SDS011;24016;52.102;11.584;2022-09-30T10:21:03;6.30;;;4.55;;
38208;SDS011;24016;52.102;11.584;2022-09-30T10:23:32;4.90;;;3.97;;
38208;SDS011;24016;52.102;11.584;2022-09-30T10:31:34;4.90;;;3.90;;
38208;SDS011;24016;52.102;11.584;2022-09-30T10:34:07;4.67;;;4.13;;
38208;SDS011;24016;52.102;11.584;2022-09-30T10:36:48;5.22;;;4.15;;
38208;SDS011;24016;52.102;11.584;2022-09-30T10:41:49;5.75;;;4.90;;
38208;SDS011;24016;52.102;11.584;2022-09-30T10:44:42;5.13;;;3.83;;
38208;SDS011;24016;52.102;11.584;2022-09-30T10:47:14;6.35;;;4.75;;
38208;SDS011;24016;52.102;11.584;2022-09-30T10:49:45;5.05;;;4.07;;
38208;SDS011;24016;52.102;11.584;2022-09-30T10:52:25;5.90;;;4.45;;
38208;SDS011;24016;52.102;11.584;2022-09-30T10:54:55;6.78;;;5.13;;
38208;SDS011;24016;52.102;11.584;2022-09-30T10:57:23;7.25;;;5.57;;
38208;SDS011;24016;52.102;11.584;2022-09-30T10:59:58;6.35;;;5.03;;
38208;SDS011;24016;52.102;11.584;2022-09-30T11:02:33;5.28;;;4.40;;
38208;SDS011;24016;52.102;11.584;2022-09-30T11:05:16;7.97;;;4.28;;
38208;SDS011;24016;52.102;11.584;2022-09-30T11:24:01;4.25;;;3.15;;
38208;SDS011;24016;52.102;11.584;2022-09-30T11:29:53;5.93;;;3.90;;
38208;SDS011;24016;52.102;11.584;2022-09-30T11:38:00;5.50;;;3.10;;
38208;SDS011;24016;52.102;11.584;2022-09-30T11:49:03;4.78;;;3.80;;
38208;SDS011;24016;52.102;11.584;2022-09-30T11:52:14;4.70;;;3.13;;
38208;SDS011;24016;52.102;11.584;2022-09-30T11:57:39;4.20;;;3.05;;
38208;SDS011;24016;52.102;11.584;2022-09-30T12:00:14;3.80;;;3.17;;
38208;SDS011;24016;52.102;11.584;2022-09-30T12:05:13;5.13;;;3.08;;
38208;SDS011;24016;52.102;11.584;2022-09-30T12:07:51;5.70;;;3.08;;
38208;SDS011;24016;52.102;11.584;2022-09-30T12:10:33;4.57;;;3.00;;
38208;SDS011;24016;52.102;11.584;2022-09-30T12:13:07;3.47;;;3.10;;
38208;SDS011;24016;52.102;11.584;2022-09-30T12:15:36;5.55;;;3.30;;
38208;SDS011;24016;52.102;11.584;2022-09-30T12:18:08;5.85;;;3.33;;
38208;SDS011;24016;52.102;11.584;2022-09-30T12:20:54;5.65;;;3.38;;
38208;SDS011;24016;52.102;11.584;2022-09-30T12:23:27;9.75;;;3.33;;
38208;SDS011;24016;52.102;11.584;2022-09-30T12:26:03;4.50;;;3.40;;
38208;SDS011;24016;52.102;11.584;2022-09-30T12:28:33;6.18;;;3.13;;
38208;SDS011;24016;52.102;11.584;2022-09-30T12:34:35;5.07;;;3.35;;
38208;SDS011;24016;52.102;11.584;2022-09-30T12:42:51;5.32;;;3.30;;
38208;SDS011;24016;52.102;11.584;2022-09-30T12:48:27;5.95;;;3.25;;
38208;SDS011;24016;52.102;11.584;2022-09-30T12:50:59;5.80;;;3.40;;
38208;SDS011;24016;52.102;11.584;2022-09-30T12:53:35;5.20;;;3.30;;
38208;SDS011;24016;52.102;11.584;2022-09-30T12:56:06;3.40;;;2.75;;
38208;SDS011;24016;52.102;11.584;2022-09-30T12:58:36;5.03;;;2.97;;
38208;SDS011;24016;52.102;11.584;2022-09-30T13:01:20;3.08;;;1.80;;
38208;SDS011;24016;52.102;11.584;2022-09-30T13:06:24;2.22;;;1.50;;
38208;SDS011;24016;52.102;11.584;2022-09-30T13:14:35;3.15;;;1.63;;
38208;SDS011;24016;52.102;11.584;2022-09-30T13:19:46;4.43;;;1.23;;
38208;SDS011;24016;52.102;11.584;2022-09-30T13:27:31;5.82;;;1.33;;
38208;SDS011;24016;52.102;11.584;2022-09-30T13:32:38;2.95;;;1.20;;
38208;SDS011;24016;52.102;11.584;2022-09-30T13:40:54;2.70;;;1.20;;
38208;SDS011;24016;52.102;11.584;2022-09-30T13:45:54;1.40;;;1.02;;
38208;SDS011;24016;52.102;11.584;2022-09-30T13:48:34;2.00;;;1.20;;
38208;SDS011;24016;52.102;11.584;2022-09-30T13:51:04;1.75;;;0.90;;
38208;SDS011;24016;52.102;11.584;2022-09-30T13:53:39;1.70;;;1.05;;
38208;SDS011;24016;52.102;11.584;2022-09-30T13:56:22;1.98;;;0.90;;
38208;SDS011;24016;52.102;11.584;2022-09-30T14:05:02;3.83;;;1.30;;
38208;SDS011;24016;52.102;11.584;2022-09-30T14:07:34;2.92;;;1.20;;
38208;SDS011;24016;52.102;11.584;2022-09-30T14:13:27;2.13;;;1.08;;
38208;SDS011;24016;52.102;11.584;2022-09-30T14:18:58;3.28;;;1.10;;
38208;SDS011;24016;52.102;11.584;2022-09-30T14:21:41;1.23;;;0.88;;
38208;SDS011;24016;52.102;11.584;2022-09-30T14:32:29;2.40;;;1.45;;
38208;SDS011;24016;52.102;11.584;2022-09-30T14:35:04;3.30;;;1.33;;
38208;SDS011;24016;52.102;11.584;2022-09-30T14:37:35;3.85;;;2.05;;
38208;SDS011;24016;52.102;11.584;2022-09-30T14:40:08;2.92;;;1.02;;
38208;SDS011;24016;52.102;11.584;2022-09-30T14:42:41;2.22;;;1.30;;
38208;SDS011;24016;52.102;11.584;2022-09-30T14:45:11;2.45;;;1.10;;
38208;SDS011;24016;52.102;11.584;2022-09-30T14:47:53;4.93;;;1.20;;
38208;SDS011;24016;52.102;11.584;2022-09-30T14:50:24;4.72;;;1.75;;
38208;SDS011;24016;52.102;11.584;2022-09-30T14:52:52;4.18;;;1.10;;
38208;SDS011;24016;52.102;11.584;2022-09-30T14:58:17;2.55;;;1.10;;
38208;SDS011;24016;52.102;11.584;2022-09-30T15:01:04;2.75;;;1.30;;
38208;SDS011;24016;52.102;11.584;2022-09-30T15:03:39;3.78;;;1.50;;
38208;SDS011;24016;52.102;11.584;2022-09-30T15:06:19;1.67;;;1.20;;
38208;SDS011;24016;52.102;11.584;2022-09-30T15:08:50;1.60;;;1.02;;
38208;SDS011;24016;52.102;11.584;2022-09-30T15:11:24;6.95;;;1.63;;
38208;SDS011;24016;52.102;11.584;2022-09-30T15:14:03;3.67;;;1.40;;
38208;SDS011;24016;52.102;11.584;2022-09-30T15:16:42;2.67;;;1.33;;
38208;SDS011;24016;52.102;11.584;2022-09-30T15:19:11;2.17;;;1.20;;
38208;SDS011;24016;52.102;11.584;2022-09-30T15:21:42;4.75;;;1.42;;
38208;SDS011;24016;52.102;11.584;2022-09-30T15:24:09;7.13;;;1.48;;
38208;SDS011;24016;52.102;11.584;2022-09-30T15:26:36;3.60;;;1.40;;
38208;SDS011;24016;52.102;11.584;2022-09-30T15:29:03;1.60;;;1.10;;
38208;SDS011;24016;52.102;11.584;2022-09-30T15:31:29;1.98;;;1.00;;
38208;SDS011;24016;52.102;11.584;2022-09-30T15:34:38;2.80;;;1.30;;
38208;SDS011;24016;52.102;11.584;2022-09-30T15:36:46;1.58;;;1.13;;
38208;SDS011;24016;52.102;11.584;2022-09-30T15:39:21;1.20;;;0.88;;
38208;SDS011;24016;52.102;11.584;2022-09-30T15:42:10;1.30;;;1.00;;
38208;SDS011;24016;52.102;11.584;2022-09-30T15:44:51;1.58;;;1.20;;
38208;SDS011;24016;52.102;11.584;2022-09-30T15:47:16;3.53;;;1.42;;
38208;SDS011;24016;52.102;11.584;2022-09-30T15:49:44;2.47;;;1.52;;
38208;SDS011;24016;52.102;11.584;2022-09-30T15:52:29;1.63;;;1.17;;
38208;SDS011;24016;52.102;11.584;2022-09-30T15:58:30;3.42;;;1.48;;
38208;SDS011;24016;52.102;11.584;2022-09-30T16:03:48;4.18;;;1.23;;
38208;SDS011;24016;52.102;11.584;2022-09-30T16:06:25;4.68;;;1.40;;
38208;SDS011;24016;52.102;11.584;2022-09-30T16:08:57;4.90;;;1.40;;
38208;SDS011;24016;52.102;11.584;2022-09-30T16:11:30;3.00;;;1.50;;
38208;SDS011;24016;52.102;11.584;2022-09-30T16:13:59;3.58;;;1.80;;
38208;SDS011;24016;52.102;11.584;2022-09-30T16:16:27;2.15;;;1.50;;
38208;SDS011;24016;52.102;11.584;2022-09-30T16:18:55;4.25;;;1.90;;
38208;SDS011;24016;52.102;11.584;2022-09-30T16:29:13;4.80;;;1.80;;
38208;SDS011;24016;52.102;11.584;2022-09-30T16:31:39;4.90;;;1.75;;
38208;SDS011;24016;52.102;11.584;2022-09-30T16:34:05;5.47;;;2.03;;
38208;SDS011;24016;52.102;11.584;2022-09-30T16:36:35;5.10;;;1.90;;
38208;SDS011;24016;52.102;11.584;2022-09-30T16:39:00;3.78;;;2.00;;
38208;SDS011;24016;52.102;11.584;2022-09-30T16:41:26;4.32;;;1.90;;
38208;SDS011;24016;52.102;11.584;2022-09-30T16:43:51;4.20;;;2.00;;
38208;SDS011;24016;52.102;11.584;2022-09-30T16:46:17;4.10;;;1.90;;
38208;SDS011;24016;52.102;11.584;2022-09-30T16:48:42;4.70;;;2.42;;
38208;SDS011;24016;52.102;11.584;2022-09-30T16:51:12;4.97;;;2.95;;
38208;SDS011;24016;52.102;11.584;2022-09-30T16:53:38;7.28;;;3.53;;
38208;SDS011;24016;52.102;11.584;2022-09-30T16:56:05;6.28;;;3.90;;
38208;SDS011;24016;52.102;11.584;2022-09-30T16:58:37;6.38;;;3.72;;
38208;SDS011;24016;52.102;11.584;2022-09-30T17:01:03;6.88;;;4.15;;
38208;SDS011;24016;52.102;11.584;2022-09-30T17:03:29;6.97;;;4.53;;
38208;SDS011;24016;52.102;11.584;2022-09-30T17:05:55;8.80;;;4.78;;
38208;SDS011;24016;52.102;11.584;2022-09-30T17:08:21;9.25;;;5.10;;
38208;SDS011;24016;52.102;11.584;2022-09-30T17:10:48;7.80;;;5.35;;
38208;SDS011;24016;52.102;11.584;2022-09-30T17:13:14;8.65;;;6.00;;
38208;SDS011;24016;52.102;11.584;2022-09-30T17:15:41;7.47;;;6.25;;
38208;SDS011;24016;52.102;11.584;2022-09-30T17:18:12;11.00;;;6.80;;
38208;SDS011;24016;52.102;11.584;2022-09-30T17:20:40;13.27;;;8.77;;
38208;SDS011;24016;52.102;11.584;2022-09-30T17:23:07;9.70;;;7.65;;
38208;SDS011;24016;52.102;11.584;2022-09-30T17:25:33;11.13;;;8.02;;
38208;SDS011;24016;52.102;11.584;2022-09-30T17:30:30;10.98;;;7.82;;
38208;SDS011;24016;52.102;11.584;2022-09-30T17:32:57;13.38;;;7.88;;
38208;SDS011;24016;52.102;11.584;2022-09-30T17:35:23;12.57;;;7.07;;
38208;SDS011;24016;52.102;11.584;2022-09-30T17:37:48;9.85;;;7.25;;
38208;SDS011;24016;52.102;11.584;2022-09-30T17:40:14;15.02;;;8.45;;
38208;SDS011;24016;52.102;11.584;2022-09-30T17:42:58;13.05;;;8.27;;
38208;SDS011;24016;52.102;11.584;2022-09-30T17:45:38;14.57;;;8.38;;
38208;SDS011;24016;52.102;11.584;2022-09-30T17:48:05;10.52;;;6.47;;
38208;SDS011;24016;52.102;11.584;2022-09-30T17:50:31;12.50;;;6.28;;
38208;SDS011;24016;52.102;11.584;2022-09-30T17:52:58;8.02;;;5.15;;
38208;SDS011;24016;52.102;11.584;2022-09-30T17:55:23;6.97;;;4.40;;
38208;SDS011;24016;52.102;11.584;2022-09-30T17:57:49;6.75;;;4.40;;
38208;SDS011;24016;52.102;11.584;2022-09-30T18:00:15;6.30;;;4.32;;
38208;SDS011;24016;52.102;11.584;2022-09-30T18:02:41;7.40;;;4.25;;
38208;SDS011;24016;52.102;11.584;2022-09-30T18:05:08;5.35;;;4.28;;
38208;SDS011;24016;52.102;11.584;2022-09-30T18:07:34;7.50;;;4.85;;
38208;SDS011;24016;52.102;11.584;2022-09-30T18:10:00;14.52;;;6.28;;